sensor_id;sensor_type;location;lat;lon;timestamp;temperature;humidity
4207;DHT22;2117;47.972;7.830;2022-07-23T03:31:30;21.20;99.90
4207;DHT22;2117;47.972;7.830;2022-07-23T03:33:57;20.50;99.90
4207;DHT22;2117;47.972;7.830;2022-07-23T03:36:22;20.50;99.90
4207;DHT22;2117;47.972;7.830;2022-07-23T03:38:48;20.50;99.90
4207;DHT22;2117;47.972;7.830;2022-07-23T03:41:13;20.40;99.90
4207;DHT22;2117;47.972;7.830;2022-07-23T03:43:39;20.40;99.90
4207;DHT22;2117;47.972;7.830;2022-07-23T03:46:04;20.40;99.90
4207;DHT22;2117;47.972;7.830;2022-07-23T03:48:30;20.40;99.90
4207;DHT22;2117;47.972;7.830;2022-07-23T03:50:56;20.40;99.90
4207;DHT22;2117;47.972;7.830;2022-07-23T03:53:21;20.40;99.90
4207;DHT22;2117;47.972;7.830;2022-07-23T03:55:47;20.40;99.90
4207;DHT22;2117;47.972;7.830;2022-07-23T03:58:12;20.50;99.90
4207;DHT22;2117;47.972;7.830;2022-07-23T04:00:38;20.40;99.90
4207;DHT22;2117;47.972;7.830;2022-07-23T04:03:04;20.40;99.90
4207;DHT22;2117;47.972;7.830;2022-07-23T04:05:29;20.40;99.90
4207;DHT22;2117;47.972;7.830;2022-07-23T04:07:55;20.40;99.90
4207;DHT22;2117;47.972;7.830;2022-07-23T04:10:20;20.40;99.90
4207;DHT22;2117;47.972;7.830;2022-07-23T04:12:46;20.40;99.90
4207;DHT22;2117;47.972;7.830;2022-07-23T04:15:12;20.30;99.90
4207;DHT22;2117;47.972;7.830;2022-07-23T04:17:37;20.30;99.90
4207;DHT22;2117;47.972;7.830;2022-07-23T04:20:03;20.30;99.90
4207;DHT22;2117;47.972;7.830;2022-07-23T04:22:30;20.30;99.90
4207;DHT22;2117;47.972;7.830;2022-07-23T04:24:55;20.30;99.90
4207;DHT22;2117;47.972;7.830;2022-07-23T04:27:21;20.30;99.90
4207;DHT22;2117;47.972;7.830;2022-07-23T04:29:46;20.30;99.90
4207;DHT22;2117;47.972;7.830;2022-07-23T04:32:12;20.20;99.90
4207;DHT22;2117;47.972;7.830;2022-07-23T04:34:37;20.30;99.90
4207;DHT22;2117;47.972;7.830;2022-07-23T04:37:03;20.20;99.90
4207;DHT22;2117;47.972;7.830;2022-07-23T04:39:28;20.20;99.90
4207;DHT22;2117;47.972;7.830;2022-07-23T04:41:54;20.20;99.90
4207;DHT22;2117;47.972;7.830;2022-07-23T04:44:19;20.20;99.90
4207;DHT22;2117;47.972;7.830;2022-07-23T04:46:45;20.20;99.90
4207;DHT22;2117;47.972;7.830;2022-07-23T04:49:11;20.20;99.90
4207;DHT22;2117;47.972;7.830;2022-07-23T04:51:36;20.20;99.90
4207;DHT22;2117;47.972;7.830;2022-07-23T04:54:02;20.20;99.90
4207;DHT22;2117;47.972;7.830;2022-07-23T04:56:27;20.30;99.90
4207;DHT22;2117;47.972;7.830;2022-07-23T04:58:53;20.30;99.90
4207;DHT22;2117;47.972;7.830;2022-07-23T05:01:18;20.30;99.90
4207;DHT22;2117;47.972;7.830;2022-07-23T05:03:44;20.30;99.90
4207;DHT22;2117;47.972;7.830;2022-07-23T05:06:10;20.30;99.90
4207;DHT22;2117;47.972;7.830;2022-07-23T05:08:35;20.40;99.90
4207;DHT22;2117;47.972;7.830;2022-07-23T05:11:01;20.40;99.90
4207;DHT22;2117;47.972;7.830;2022-07-23T05:13:26;20.40;99.90
4207;DHT22;2117;47.972;7.830;2022-07-23T05:15:52;20.40;99.90
4207;DHT22;2117;47.972;7.830;2022-07-23T05:18:17;20.40;99.90
4207;DHT22;2117;47.972;7.830;2022-07-23T05:20:43;20.50;99.90
4207;DHT22;2117;47.972;7.830;2022-07-23T05:23:08;20.60;99.90
4207;DHT22;2117;47.972;7.830;2022-07-23T05:25:35;20.50;99.90
4207;DHT22;2117;47.972;7.830;2022-07-23T05:28:01;20.50;99.90
4207;DHT22;2117;47.972;7.830;2022-07-23T05:30:26;20.60;99.90
4207;DHT22;2117;47.972;7.830;2022-07-23T05:32:52;20.70;99.90
4207;DHT22;2117;47.972;7.830;2022-07-23T05:35:18;20.70;99.90
4207;DHT22;2117;47.972;7.830;2022-07-23T05:37:43;20.70;99.90
4207;DHT22;2117;47.972;7.830;2022-07-23T05:40:10;20.80;99.90
4207;DHT22;2117;47.972;7.830;2022-07-23T05:42:38;20.90;99.90
4207;DHT22;2117;47.972;7.830;2022-07-23T05:45:04;21.20;99.90
4207;DHT22;2117;47.972;7.830;2022-07-23T05:47:49;21.40;99.90
4207;DHT22;2117;47.972;7.830;2022-07-23T05:50:15;21.60;99.90
4207;DHT22;2117;47.972;7.830;2022-07-23T05:52:41;21.60;99.90
4207;DHT22;2117;47.972;7.830;2022-07-23T05:55:08;21.70;99.90
4207;DHT22;2117;47.972;7.830;2022-07-23T05:57:35;21.80;99.90
4207;DHT22;2117;47.972;7.830;2022-07-23T06:00:03;21.80;99.90
4207;DHT22;2117;47.972;7.830;2022-07-23T06:02:29;21.70;99.90
4207;DHT22;2117;47.972;7.830;2022-07-23T06:04:54;21.60;99.90
4207;DHT22;2117;47.972;7.830;2022-07-23T06:07:20;21.60;99.90
4207;DHT22;2117;47.972;7.830;2022-07-23T06:09:45;21.60;99.90
4207;DHT22;2117;47.972;7.830;2022-07-23T06:12:12;21.60;99.90
4207;DHT22;2117;47.972;7.830;2022-07-23T06:14:38;21.60;99.90
4207;DHT22;2117;47.972;7.830;2022-07-23T06:17:04;21.70;99.90
4207;DHT22;2117;47.972;7.830;2022-07-23T06:19:29;21.80;99.90
4207;DHT22;2117;47.972;7.830;2022-07-23T06:21:55;21.80;99.90
4207;DHT22;2117;47.972;7.830;2022-07-23T06:24:20;21.80;99.90
4207;DHT22;2117;47.972;7.830;2022-07-23T06:26:46;22.00;99.90
4207;DHT22;2117;47.972;7.830;2022-07-23T06:29:11;22.00;99.90
4207;DHT22;2117;47.972;7.830;2022-07-23T06:31:37;22.00;99.90
4207;DHT22;2117;47.972;7.830;2022-07-23T06:34:03;22.10;99.90
4207;DHT22;2117;47.972;7.830;2022-07-23T06:36:28;22.20;99.90
4207;DHT22;2117;47.972;7.830;2022-07-23T06:38:54;22.20;99.90
4207;DHT22;2117;47.972;7.830;2022-07-23T06:41:20;22.20;99.90
4207;DHT22;2117;47.972;7.830;2022-07-23T06:43:45;22.10;99.90
4207;DHT22;2117;47.972;7.830;2022-07-23T06:46:11;22.10;99.90
4207;DHT22;2117;47.972;7.830;2022-07-23T06:48:36;22.10;99.90
4207;DHT22;2117;47.972;7.830;2022-07-23T06:51:02;22.20;99.90
4207;DHT22;2117;47.972;7.830;2022-07-23T06:53:28;22.20;99.90
4207;DHT22;2117;47.972;7.830;2022-07-23T06:55:54;22.30;99.90
4207;DHT22;2117;47.972;7.830;2022-07-23T06:58:20;22.30;99.90
4207;DHT22;2117;47.972;7.830;2022-07-23T07:00:45;22.30;99.90
4207;DHT22;2117;47.972;7.830;2022-07-23T07:03:11;22.30;99.90
4207;DHT22;2117;47.972;7.830;2022-07-23T07:05:37;22.50;99.90
4207;DHT22;2117;47.972;7.830;2022-07-23T07:08:04;22.50;99.90
4207;DHT22;2117;47.972;7.830;2022-07-23T07:10:30;22.60;99.90
4207;DHT22;2117;47.972;7.830;2022-07-23T07:12:56;22.60;99.90
4207;DHT22;2117;47.972;7.830;2022-07-23T07:15:22;22.60;99.90
4207;DHT22;2117;47.972;7.830;2022-07-23T07:17:48;22.60;99.90
4207;DHT22;2117;47.972;7.830;2022-07-23T07:20:14;22.60;99.90
4207;DHT22;2117;47.972;7.830;2022-07-23T07:22:39;22.50;99.90
4207;DHT22;2117;47.972;7.830;2022-07-23T07:25:06;22.50;99.90
4207;DHT22;2117;47.972;7.830;2022-07-23T07:27:32;22.50;99.90
4207;DHT22;2117;47.972;7.830;2022-07-23T07:29:57;22.50;99.90
4207;DHT22;2117;47.972;7.830;2022-07-23T07:32:23;22.60;99.90
4207;DHT22;2117;47.972;7.830;2022-07-23T07:34:48;22.70;99.90
4207;DHT22;2117;47.972;7.830;2022-07-23T07:37:14;22.80;99.90
4207;DHT22;2117;47.972;7.830;2022-07-23T07:39:39;22.90;99.90
4207;DHT22;2117;47.972;7.830;2022-07-23T07:42:05;22.90;99.90
4207;DHT22;2117;47.972;7.830;2022-07-23T07:44:31;23.00;99.90
4207;DHT22;2117;47.972;7.830;2022-07-23T07:46:56;23.10;99.90
4207;DHT22;2117;47.972;7.830;2022-07-23T07:49:22;23.20;99.90
4207;DHT22;2117;47.972;7.830;2022-07-23T07:51:48;23.20;99.90
4207;DHT22;2117;47.972;7.830;2022-07-23T07:54:13;23.10;99.90
4207;DHT22;2117;47.972;7.830;2022-07-23T07:56:39;23.10;99.90
4207;DHT22;2117;47.972;7.830;2022-07-23T07:59:05;23.20;99.90
4207;DHT22;2117;47.972;7.830;2022-07-23T08:01:31;23.30;99.90
4207;DHT22;2117;47.972;7.830;2022-07-23T08:03:57;23.30;99.90
4207;DHT22;2117;47.972;7.830;2022-07-23T08:06:22;23.50;99.90
4207;DHT22;2117;47.972;7.830;2022-07-23T08:08:48;23.50;99.90
4207;DHT22;2117;47.972;7.830;2022-07-23T08:11:14;23.50;99.90
4207;DHT22;2117;47.972;7.830;2022-07-23T08:13:39;23.50;99.90
4207;DHT22;2117;47.972;7.830;2022-07-23T08:16:05;23.50;99.90
4207;DHT22;2117;47.972;7.830;2022-07-23T08:18:30;23.70;99.90
4207;DHT22;2117;47.972;7.830;2022-07-23T08:20:56;23.70;99.90
4207;DHT22;2117;47.972;7.830;2022-07-23T08:23:21;23.70;99.90
4207;DHT22;2117;47.972;7.830;2022-07-23T08:25:47;24.00;99.90
4207;DHT22;2117;47.972;7.830;2022-07-23T08:28:14;24.00;99.90
4207;DHT22;2117;47.972;7.830;2022-07-23T08:30:42;24.10;99.90
4207;DHT22;2117;47.972;7.830;2022-07-23T08:33:10;24.20;99.90
4207;DHT22;2117;47.972;7.830;2022-07-23T08:35:45;24.50;99.90
4207;DHT22;2117;47.972;7.830;2022-07-23T08:38:16;24.50;99.90
4207;DHT22;2117;47.972;7.830;2022-07-23T08:40:53;24.60;99.90
4207;DHT22;2117;47.972;7.830;2022-07-23T08:43:25;24.60;99.90
4207;DHT22;2117;47.972;7.830;2022-07-23T08:45:52;24.60;99.90
4207;DHT22;2117;47.972;7.830;2022-07-23T08:48:21;24.70;99.90
4207;DHT22;2117;47.972;7.830;2022-07-23T08:50:52;24.60;99.90
4207;DHT22;2117;47.972;7.830;2022-07-23T08:53:18;24.80;99.90
4207;DHT22;2117;47.972;7.830;2022-07-23T08:55:49;24.80;99.90
4207;DHT22;2117;47.972;7.830;2022-07-23T08:58:17;24.80;99.90
4207;DHT22;2117;47.972;7.830;2022-07-23T09:00:43;24.80;99.90
4207;DHT22;2117;47.972;7.830;2022-07-23T09:03:18;25.00;99.90
4207;DHT22;2117;47.972;7.830;2022-07-23T09:05:44;25.20;99.90
4207;DHT22;2117;47.972;7.830;2022-07-23T09:08:12;25.20;99.90
4207;DHT22;2117;47.972;7.830;2022-07-23T09:10:49;25.30;99.90
4207;DHT22;2117;47.972;7.830;2022-07-23T09:15:52;25.30;99.90
4207;DHT22;2117;47.972;7.830;2022-07-23T09:18:18;25.30;99.90
4207;DHT22;2117;47.972;7.830;2022-07-23T09:20:44;25.40;99.90
4207;DHT22;2117;47.972;7.830;2022-07-23T09:23:10;25.50;99.90
4207;DHT22;2117;47.972;7.830;2022-07-23T09:25:36;25.50;99.90
4207;DHT22;2117;47.972;7.830;2022-07-23T09:28:01;25.50;99.90
4207;DHT22;2117;47.972;7.830;2022-07-23T09:30:32;25.50;99.90
4207;DHT22;2117;47.972;7.830;2022-07-23T09:33:09;25.40;99.90
4207;DHT22;2117;47.972;7.830;2022-07-23T09:35:55;25.40;99.90
4207;DHT22;2117;47.972;7.830;2022-07-23T09:38:24;25.50;99.90
4207;DHT22;2117;47.972;7.830;2022-07-23T09:41:07;25.50;99.90
4207;DHT22;2117;47.972;7.830;2022-07-23T09:43:34;25.60;99.90
4207;DHT22;2117;47.972;7.830;2022-07-23T09:46:19;25.70;99.90
4207;DHT22;2117;47.972;7.830;2022-07-23T09:48:47;25.70;99.90
4207;DHT22;2117;47.972;7.830;2022-07-23T09:51:13;25.80;99.90
4207;DHT22;2117;47.972;7.830;2022-07-23T09:53:57;25.80;99.90
4207;DHT22;2117;47.972;7.830;2022-07-23T09:56:23;25.90;99.90
4207;DHT22;2117;47.972;7.830;2022-07-23T10:01:23;25.90;99.90
4207;DHT22;2117;47.972;7.830;2022-07-23T10:03:48;25.80;99.90
4207;DHT22;2117;47.972;7.830;2022-07-23T10:06:14;25.90;99.90
4207;DHT22;2117;47.972;7.830;2022-07-23T10:08:41;26.00;99.90
4207;DHT22;2117;47.972;7.830;2022-07-23T10:11:09;26.10;99.90
4207;DHT22;2117;47.972;7.830;2022-07-23T10:13:36;26.10;99.90
4207;DHT22;2117;47.972;7.830;2022-07-23T10:16:12;26.00;99.90
4207;DHT22;2117;47.972;7.830;2022-07-23T10:18:38;26.10;99.90
4207;DHT22;2117;47.972;7.830;2022-07-23T10:21:07;26.20;99.90
4207;DHT22;2117;47.972;7.830;2022-07-23T10:23:45;26.30;99.90
4207;DHT22;2117;47.972;7.830;2022-07-23T10:26:32;26.30;99.90
4207;DHT22;2117;47.972;7.830;2022-07-23T10:31:50;26.20;99.90
4207;DHT22;2117;47.972;7.830;2022-07-23T10:34:30;26.30;99.90
4207;DHT22;2117;47.972;7.830;2022-07-23T10:37:07;26.40;99.90
4207;DHT22;2117;47.972;7.830;2022-07-23T10:39:37;26.40;99.90
4207;DHT22;2117;47.972;7.830;2022-07-23T10:42:14;26.40;99.90
4207;DHT22;2117;47.972;7.830;2022-07-23T10:44:44;26.40;99.90
4207;DHT22;2117;47.972;7.830;2022-07-23T10:47:11;26.50;99.90
4207;DHT22;2117;47.972;7.830;2022-07-23T10:50:19;26.60;99.90
4207;DHT22;2117;47.972;7.830;2022-07-23T10:58:05;26.80;99.90
4207;DHT22;2117;47.972;7.830;2022-07-23T11:00:32;26.90;99.90
4207;DHT22;2117;47.972;7.830;2022-07-23T11:03:04;26.90;99.90
4207;DHT22;2117;47.972;7.830;2022-07-23T11:05:44;26.90;99.90
4207;DHT22;2117;47.972;7.830;2022-07-23T11:08:13;26.90;99.90
4207;DHT22;2117;47.972;7.830;2022-07-23T11:10:49;26.80;99.90
4207;DHT22;2117;47.972;7.830;2022-07-23T11:13:44;26.80;99.90
4207;DHT22;2117;47.972;7.830;2022-07-23T11:16:13;27.00;99.90
4207;DHT22;2117;47.972;7.830;2022-07-23T11:24:17;27.70;99.90
4207;DHT22;2117;47.972;7.830;2022-07-23T11:31:56;28.80;99.90
4207;DHT22;2117;47.972;7.830;2022-07-23T11:34:31;29.00;99.90
4207;DHT22;2117;47.972;7.830;2022-07-23T11:36:58;29.20;99.90
4207;DHT22;2117;47.972;7.830;2022-07-23T11:39:26;29.40;99.90
4207;DHT22;2117;47.972;7.830;2022-07-23T11:41:53;29.10;99.90
4207;DHT22;2117;47.972;7.830;2022-07-23T11:44:38;29.00;99.90
4207;DHT22;2117;47.972;7.830;2022-07-23T11:47:09;29.20;99.90
4207;DHT22;2117;47.972;7.830;2022-07-23T11:49:35;29.20;99.90
4207;DHT22;2117;47.972;7.830;2022-07-23T11:52:09;29.00;99.90
4207;DHT22;2117;47.972;7.830;2022-07-23T11:54:37;29.20;99.90
4207;DHT22;2117;47.972;7.830;2022-07-23T11:57:03;29.20;99.90
4207;DHT22;2117;47.972;7.830;2022-07-23T11:59:32;29.30;99.90
4207;DHT22;2117;47.972;7.830;2022-07-23T12:01:59;29.50;99.90
4207;DHT22;2117;47.972;7.830;2022-07-23T12:04:45;29.90;99.90
4207;DHT22;2117;47.972;7.830;2022-07-23T12:07:33;30.40;99.90
4207;DHT22;2117;47.972;7.830;2022-07-23T12:10:08;30.50;99.90
4207;DHT22;2117;47.972;7.830;2022-07-23T12:12:43;30.60;99.90
4207;DHT22;2117;47.972;7.830;2022-07-23T12:15:13;31.00;99.90
4207;DHT22;2117;47.972;7.830;2022-07-23T12:17:41;31.00;99.40
4207;DHT22;2117;47.972;7.830;2022-07-23T12:20:09;31.00;99.90
4207;DHT22;2117;47.972;7.830;2022-07-23T12:22:41;31.30;99.90
4207;DHT22;2117;47.972;7.830;2022-07-23T12:27:38;31.10;98.90
4207;DHT22;2117;47.972;7.830;2022-07-23T12:30:27;31.20;99.50
4207;DHT22;2117;47.972;7.830;2022-07-23T12:32:57;31.50;98.40
4207;DHT22;2117;47.972;7.830;2022-07-23T12:35:29;31.70;98.30
4207;DHT22;2117;47.972;7.830;2022-07-23T12:38:01;32.10;97.40
4207;DHT22;2117;47.972;7.830;2022-07-23T12:40:32;32.60;96.70
4207;DHT22;2117;47.972;7.830;2022-07-23T12:45:27;33.10;96.60
4207;DHT22;2117;47.972;7.830;2022-07-23T12:47:59;33.50;95.90
4207;DHT22;2117;47.972;7.830;2022-07-23T12:50:44;33.80;94.80
4207;DHT22;2117;47.972;7.830;2022-07-23T12:53:19;34.00;93.60
4207;DHT22;2117;47.972;7.830;2022-07-23T12:55:45;34.20;92.30
4207;DHT22;2117;47.972;7.830;2022-07-23T12:58:14;34.40;92.00
4207;DHT22;2117;47.972;7.830;2022-07-23T13:01:04;34.50;91.80
4207;DHT22;2117;47.972;7.830;2022-07-23T13:03:38;34.30;91.30
4207;DHT22;2117;47.972;7.830;2022-07-23T13:06:07;34.30;91.20
4207;DHT22;2117;47.972;7.830;2022-07-23T13:08:34;34.30;91.00
4207;DHT22;2117;47.972;7.830;2022-07-23T13:11:01;34.30;90.20
4207;DHT22;2117;47.972;7.830;2022-07-23T13:13:29;33.90;90.30
4207;DHT22;2117;47.972;7.830;2022-07-23T13:15:56;33.60;90.90
4207;DHT22;2117;47.972;7.830;2022-07-23T13:18:22;33.80;91.90
4207;DHT22;2117;47.972;7.830;2022-07-23T13:20:48;34.00;91.30
4207;DHT22;2117;47.972;7.830;2022-07-23T13:23:15;33.60;92.00
4207;DHT22;2117;47.972;7.830;2022-07-23T13:25:41;33.60;92.20
4207;DHT22;2117;47.972;7.830;2022-07-23T13:28:07;33.40;91.40
4207;DHT22;2117;47.972;7.830;2022-07-23T13:30:33;33.10;91.90
4207;DHT22;2117;47.972;7.830;2022-07-23T13:32:59;32.90;91.60
4207;DHT22;2117;47.972;7.830;2022-07-23T13:35:24;32.60;91.90
4207;DHT22;2117;47.972;7.830;2022-07-23T13:37:50;32.60;91.50
4207;DHT22;2117;47.972;7.830;2022-07-23T13:40:16;32.80;91.40
4207;DHT22;2117;47.972;7.830;2022-07-23T13:42:41;32.80;90.90
4207;DHT22;2117;47.972;7.830;2022-07-23T13:45:07;32.90;91.00
4207;DHT22;2117;47.972;7.830;2022-07-23T13:47:33;33.30;90.90
4207;DHT22;2117;47.972;7.830;2022-07-23T13:49:59;33.60;90.60
4207;DHT22;2117;47.972;7.830;2022-07-23T13:52:24;33.90;89.60
4207;DHT22;2117;47.972;7.830;2022-07-23T13:54:50;34.40;89.00
4207;DHT22;2117;47.972;7.830;2022-07-23T13:57:16;34.50;87.40
4207;DHT22;2117;47.972;7.830;2022-07-23T13:59:41;34.60;88.90
4207;DHT22;2117;47.972;7.830;2022-07-23T14:02:07;35.00;85.80
4207;DHT22;2117;47.972;7.830;2022-07-23T14:04:33;34.50;85.40
4207;DHT22;2117;47.972;7.830;2022-07-23T14:06:59;34.40;84.80
4207;DHT22;2117;47.972;7.830;2022-07-23T14:09:24;34.60;84.50
4207;DHT22;2117;47.972;7.830;2022-07-23T14:11:50;34.80;84.20
4207;DHT22;2117;47.972;7.830;2022-07-23T14:14:17;34.90;84.60
4207;DHT22;2117;47.972;7.830;2022-07-23T14:16:42;35.20;84.00
4207;DHT22;2117;47.972;7.830;2022-07-23T14:19:08;35.50;82.10
4207;DHT22;2117;47.972;7.830;2022-07-23T14:21:34;35.50;82.60
4207;DHT22;2117;47.972;7.830;2022-07-23T14:23:59;35.20;80.40
4207;DHT22;2117;47.972;7.830;2022-07-23T14:26:25;34.80;81.10
4207;DHT22;2117;47.972;7.830;2022-07-23T14:28:51;34.90;79.70
4207;DHT22;2117;47.972;7.830;2022-07-23T14:31:16;34.70;80.10
4207;DHT22;2117;47.972;7.830;2022-07-23T14:33:42;34.00;80.00
4207;DHT22;2117;47.972;7.830;2022-07-23T14:36:08;33.60;80.70
4207;DHT22;2117;47.972;7.830;2022-07-23T14:38:33;33.40;81.20
4207;DHT22;2117;47.972;7.830;2022-07-23T14:40:59;33.00;80.60
4207;DHT22;2117;47.972;7.830;2022-07-23T14:43:25;32.80;82.80
4207;DHT22;2117;47.972;7.830;2022-07-23T14:45:50;32.30;83.40
4207;DHT22;2117;47.972;7.830;2022-07-23T14:48:16;32.20;83.50
4207;DHT22;2117;47.972;7.830;2022-07-23T14:50:42;32.00;84.40
4207;DHT22;2117;47.972;7.830;2022-07-23T14:53:07;31.90;86.10
4207;DHT22;2117;47.972;7.830;2022-07-23T14:55:33;32.00;86.80
4207;DHT22;2117;47.972;7.830;2022-07-23T14:57:59;32.40;88.90
4207;DHT22;2117;47.972;7.830;2022-07-23T15:00:25;32.60;90.40
4207;DHT22;2117;47.972;7.830;2022-07-23T15:02:51;32.80;90.30
4207;DHT22;2117;47.972;7.830;2022-07-23T15:05:17;32.90;90.10
4207;DHT22;2117;47.972;7.830;2022-07-23T15:07:42;33.10;89.40
4207;DHT22;2117;47.972;7.830;2022-07-23T15:10:08;33.20;89.20
4207;DHT22;2117;47.972;7.830;2022-07-23T15:12:34;33.30;89.70
4207;DHT22;2117;47.972;7.830;2022-07-23T15:14:59;33.20;89.60
4207;DHT22;2117;47.972;7.830;2022-07-23T15:17:25;33.40;86.80
4207;DHT22;2117;47.972;7.830;2022-07-23T15:19:51;33.60;88.10
4207;DHT22;2117;47.972;7.830;2022-07-23T15:22:16;33.60;88.20
4207;DHT22;2117;47.972;7.830;2022-07-23T15:24:42;33.70;88.90
4207;DHT22;2117;47.972;7.830;2022-07-23T15:27:08;33.80;86.90
4207;DHT22;2117;47.972;7.830;2022-07-23T15:29:34;34.10;87.70
4207;DHT22;2117;47.972;7.830;2022-07-23T15:32:00;34.30;86.90
4207;DHT22;2117;47.972;7.830;2022-07-23T15:34:26;34.40;85.90
4207;DHT22;2117;47.972;7.830;2022-07-23T15:36:52;34.50;86.30
4207;DHT22;2117;47.972;7.830;2022-07-23T15:39:17;34.70;83.30
4207;DHT22;2117;47.972;7.830;2022-07-23T15:41:43;34.70;84.10
4207;DHT22;2117;47.972;7.830;2022-07-23T15:44:09;34.90;82.70
4207;DHT22;2117;47.972;7.830;2022-07-23T15:46:34;35.00;83.40
4207;DHT22;2117;47.972;7.830;2022-07-23T15:49:00;35.10;80.70
4207;DHT22;2117;47.972;7.830;2022-07-23T15:51:25;35.10;81.40
4207;DHT22;2117;47.972;7.830;2022-07-23T15:53:51;35.20;80.70
4207;DHT22;2117;47.972;7.830;2022-07-23T15:56:17;35.20;80.10
4207;DHT22;2117;47.972;7.830;2022-07-23T15:58:42;35.40;80.10
4207;DHT22;2117;47.972;7.830;2022-07-23T16:01:08;35.40;79.80
4207;DHT22;2117;47.972;7.830;2022-07-23T16:03:35;35.40;79.40
4207;DHT22;2117;47.972;7.830;2022-07-23T16:06:01;35.40;79.30
4207;DHT22;2117;47.972;7.830;2022-07-23T16:08:27;35.40;78.30
4207;DHT22;2117;47.972;7.830;2022-07-23T16:10:53;35.40;76.60
4207;DHT22;2117;47.972;7.830;2022-07-23T16:13:18;35.40;76.80
4207;DHT22;2117;47.972;7.830;2022-07-23T16:15:44;35.20;75.70
4207;DHT22;2117;47.972;7.830;2022-07-23T16:18:10;35.00;76.50
4207;DHT22;2117;47.972;7.830;2022-07-23T16:20:36;34.80;77.20
4207;DHT22;2117;47.972;7.830;2022-07-23T16:23:02;34.60;77.30
4207;DHT22;2117;47.972;7.830;2022-07-23T16:25:29;34.30;77.40
4207;DHT22;2117;47.972;7.830;2022-07-23T16:27:55;34.20;79.40
4207;DHT22;2117;47.972;7.830;2022-07-23T16:30:21;33.90;78.00
4207;DHT22;2117;47.972;7.830;2022-07-23T16:32:46;33.40;78.00
4207;DHT22;2117;47.972;7.830;2022-07-23T16:35:12;33.10;78.70
4207;DHT22;2117;47.972;7.830;2022-07-23T16:37:39;33.10;79.40
4207;DHT22;2117;47.972;7.830;2022-07-23T16:40:07;32.90;80.00
4207;DHT22;2117;47.972;7.830;2022-07-23T16:42:34;32.80;80.20
4207;DHT22;2117;47.972;7.830;2022-07-23T16:45:00;32.70;82.10
4207;DHT22;2117;47.972;7.830;2022-07-23T16:47:26;32.50;81.00
4207;DHT22;2117;47.972;7.830;2022-07-23T16:49:52;32.20;82.10
4207;DHT22;2117;47.972;7.830;2022-07-23T16:52:18;31.80;82.50
4207;DHT22;2117;47.972;7.830;2022-07-23T16:54:44;31.70;84.70
4207;DHT22;2117;47.972;7.830;2022-07-23T16:57:10;31.60;85.20
4207;DHT22;2117;47.972;7.830;2022-07-23T16:59:35;31.40;84.80
4207;DHT22;2117;47.972;7.830;2022-07-23T17:02:01;31.30;84.80
4207;DHT22;2117;47.972;7.830;2022-07-23T17:04:27;31.30;85.50
4207;DHT22;2117;47.972;7.830;2022-07-23T17:06:52;31.20;86.50
4207;DHT22;2117;47.972;7.830;2022-07-23T17:09:18;31.10;86.80
4207;DHT22;2117;47.972;7.830;2022-07-23T17:11:44;30.90;85.30
4207;DHT22;2117;47.972;7.830;2022-07-23T17:14:10;30.80;86.00
4207;DHT22;2117;47.972;7.830;2022-07-23T17:16:35;30.80;87.20
4207;DHT22;2117;47.972;7.830;2022-07-23T17:19:02;30.70;87.70
4207;DHT22;2117;47.972;7.830;2022-07-23T17:21:28;30.50;87.50
4207;DHT22;2117;47.972;7.830;2022-07-23T17:23:53;30.50;88.10
4207;DHT22;2117;47.972;7.830;2022-07-23T17:26:19;30.40;87.80
4207;DHT22;2117;47.972;7.830;2022-07-23T17:28:44;30.20;88.50
4207;DHT22;2117;47.972;7.830;2022-07-23T17:31:10;30.00;89.00
4207;DHT22;2117;47.972;7.830;2022-07-23T17:33:37;29.90;88.70
4207;DHT22;2117;47.972;7.830;2022-07-23T17:36:04;29.80;89.50
4207;DHT22;2117;47.972;7.830;2022-07-23T17:38:30;29.70;89.50
4207;DHT22;2117;47.972;7.830;2022-07-23T17:40:56;29.50;90.00
4207;DHT22;2117;47.972;7.830;2022-07-23T17:43:21;29.50;90.10
4207;DHT22;2117;47.972;7.830;2022-07-23T17:45:47;29.30;90.80
4207;DHT22;2117;47.972;7.830;2022-07-23T17:48:13;29.30;90.90
4207;DHT22;2117;47.972;7.830;2022-07-23T17:50:39;29.20;91.40
4207;DHT22;2117;47.972;7.830;2022-07-23T17:53:05;29.20;91.00
4207;DHT22;2117;47.972;7.830;2022-07-23T17:55:32;29.10;91.20
4207;DHT22;2117;47.972;7.830;2022-07-23T17:57:58;29.00;91.50
4207;DHT22;2117;47.972;7.830;2022-07-23T18:00:27;28.90;91.90
4207;DHT22;2117;47.972;7.830;2022-07-23T18:02:54;28.80;91.90
4207;DHT22;2117;47.972;7.830;2022-07-23T18:05:19;28.80;92.30
4207;DHT22;2117;47.972;7.830;2022-07-23T18:07:45;28.70;92.30
4207;DHT22;2117;47.972;7.830;2022-07-23T18:10:11;28.70;92.10
4207;DHT22;2117;47.972;7.830;2022-07-23T18:12:37;28.50;91.30
4207;DHT22;2117;47.972;7.830;2022-07-23T18:15:04;28.40;91.60
4207;DHT22;2117;47.972;7.830;2022-07-23T18:17:30;28.40;92.10
4207;DHT22;2117;47.972;7.830;2022-07-23T18:19:56;28.30;92.10
4207;DHT22;2117;47.972;7.830;2022-07-23T18:22:21;28.20;92.20
4207;DHT22;2117;47.972;7.830;2022-07-23T18:24:47;28.20;92.80
4207;DHT22;2117;47.972;7.830;2022-07-23T18:27:13;28.00;92.70
4207;DHT22;2117;47.972;7.830;2022-07-23T18:29:38;27.90;92.70
4207;DHT22;2117;47.972;7.830;2022-07-23T18:32:04;27.90;92.60
4207;DHT22;2117;47.972;7.830;2022-07-23T18:34:30;27.80;93.10
4207;DHT22;2117;47.972;7.830;2022-07-23T18:36:56;27.80;92.80
4207;DHT22;2117;47.972;7.830;2022-07-23T18:39:22;27.70;92.40
4207;DHT22;2117;47.972;7.830;2022-07-23T18:41:48;27.50;92.30
4207;DHT22;2117;47.972;7.830;2022-07-23T18:44:14;27.50;92.80
4207;DHT22;2117;47.972;7.830;2022-07-23T18:46:40;27.40;92.50
4207;DHT22;2117;47.972;7.830;2022-07-23T18:49:06;27.40;92.80
4207;DHT22;2117;47.972;7.830;2022-07-23T18:51:33;27.20;92.70
4207;DHT22;2117;47.972;7.830;2022-07-23T18:53:58;27.20;92.90
4207;DHT22;2117;47.972;7.830;2022-07-23T18:56:24;27.20;93.10
4207;DHT22;2117;47.972;7.830;2022-07-23T18:58:49;27.10;93.30
4207;DHT22;2117;47.972;7.830;2022-07-23T19:01:15;27.00;93.10
4207;DHT22;2117;47.972;7.830;2022-07-23T19:03:41;27.00;93.40
4207;DHT22;2117;47.972;7.830;2022-07-23T19:06:07;26.90;93.20
4207;DHT22;2117;47.972;7.830;2022-07-23T19:08:33;26.90;93.50
4207;DHT22;2117;47.972;7.830;2022-07-23T19:10:59;26.80;93.70
4207;DHT22;2117;47.972;7.830;2022-07-23T19:13:25;26.80;93.20
4207;DHT22;2117;47.972;7.830;2022-07-23T19:15:52;26.70;94.00
4207;DHT22;2117;47.972;7.830;2022-07-23T19:18:18;26.70;93.90
4207;DHT22;2117;47.972;7.830;2022-07-23T19:20:43;26.70;94.30
4207;DHT22;2117;47.972;7.830;2022-07-23T19:23:09;26.70;93.80
4207;DHT22;2117;47.972;7.830;2022-07-23T19:25:35;26.60;94.30
4207;DHT22;2117;47.972;7.830;2022-07-23T19:28:00;26.60;94.40
4207;DHT22;2117;47.972;7.830;2022-07-23T19:30:26;26.60;94.50
4207;DHT22;2117;47.972;7.830;2022-07-23T19:32:52;26.50;94.30
4207;DHT22;2117;47.972;7.830;2022-07-23T19:35:17;26.50;94.80
4207;DHT22;2117;47.972;7.830;2022-07-23T19:37:43;26.50;94.70
4207;DHT22;2117;47.972;7.830;2022-07-23T19:40:09;26.50;94.70
4207;DHT22;2117;47.972;7.830;2022-07-23T19:42:35;26.40;94.50
4207;DHT22;2117;47.972;7.830;2022-07-23T19:45:01;26.40;94.80
4207;DHT22;2117;47.972;7.830;2022-07-23T19:47:27;26.40;95.30
4207;DHT22;2117;47.972;7.830;2022-07-23T19:49:53;26.30;95.40
4207;DHT22;2117;47.972;7.830;2022-07-23T19:52:19;26.30;95.30
4207;DHT22;2117;47.972;7.830;2022-07-23T19:54:45;26.20;95.80
4207;DHT22;2117;47.972;7.830;2022-07-23T19:57:10;26.20;95.90
4207;DHT22;2117;47.972;7.830;2022-07-23T19:59:36;26.20;95.80
4207;DHT22;2117;47.972;7.830;2022-07-23T20:02:03;26.10;96.00